sensor_id;sensor_type;location;lat;lon;timestamp;P1;durP1;ratioP1;P2;durP2;ratioP2
20844;SDS011;10583;49.084;8.646;2023-04-22T00:01:47;10.73;;;10.73;;
20844;SDS011;10583;49.084;8.646;2023-04-22T00:04:14;10.50;;;10.50;;
20844;SDS011;10583;49.084;8.646;2023-04-22T00:06:41;10.13;;;10.13;;
20844;SDS011;10583;49.084;8.646;2023-04-22T00:09:09;9.33;;;9.33;;
20844;SDS011;10583;49.084;8.646;2023-04-22T00:11:37;9.23;;;9.23;;
20844;SDS011;10583;49.084;8.646;2023-04-22T00:14:04;9.53;;;9.53;;
20844;SDS011;10583;49.084;8.646;2023-04-22T00:16:31;10.30;;;10.30;;
20844;SDS011;10583;49.084;8.646;2023-04-22T00:18:58;9.33;;;9.33;;
20844;SDS011;10583;49.084;8.646;2023-04-22T00:21:24;10.00;;;10.00;;
20844;SDS011;10583;49.084;8.646;2023-04-22T00:23:51;10.83;;;10.83;;
20844;SDS011;10583;49.084;8.646;2023-04-22T00:26:18;10.13;;;10.13;;
20844;SDS011;10583;49.084;8.646;2023-04-22T00:28:46;11.03;;;11.03;;
20844;SDS011;10583;49.084;8.646;2023-04-22T00:31:13;9.97;;;9.97;;
20844;SDS011;10583;49.084;8.646;2023-04-22T00:33:39;8.77;;;8.77;;
20844;SDS011;10583;49.084;8.646;2023-04-22T00:36:06;10.60;;;10.60;;
20844;SDS011;10583;49.084;8.646;2023-04-22T00:38:33;9.60;;;9.60;;
20844;SDS011;10583;49.084;8.646;2023-04-22T00:41:00;8.70;;;8.70;;
20844;SDS011;10583;49.084;8.646;2023-04-22T00:43:28;9.47;;;9.47;;
20844;SDS011;10583;49.084;8.646;2023-04-22T00:45:56;8.63;;;8.63;;
20844;SDS011;10583;49.084;8.646;2023-04-22T00:48:23;8.57;;;8.57;;
20844;SDS011;10583;49.084;8.646;2023-04-22T00:50:50;8.40;;;8.40;;
20844;SDS011;10583;49.084;8.646;2023-04-22T00:53:17;8.37;;;8.37;;
20844;SDS011;10583;49.084;8.646;2023-04-22T00:55:44;8.93;;;8.93;;
20844;SDS011;10583;49.084;8.646;2023-04-22T00:58:10;8.87;;;8.87;;
20844;SDS011;10583;49.084;8.646;2023-04-22T01:00:38;10.43;;;10.43;;
20844;SDS011;10583;49.084;8.646;2023-04-22T01:03:06;7.87;;;7.87;;
20844;SDS011;10583;49.084;8.646;2023-04-22T01:05:33;7.87;;;7.87;;
20844;SDS011;10583;49.084;8.646;2023-04-22T01:08:00;8.73;;;8.73;;
20844;SDS011;10583;49.084;8.646;2023-04-22T01:10:27;7.33;;;7.33;;
20844;SDS011;10583;49.084;8.646;2023-04-22T01:12:54;7.43;;;7.43;;
20844;SDS011;10583;49.084;8.646;2023-04-22T01:15:21;8.30;;;8.30;;
20844;SDS011;10583;49.084;8.646;2023-04-22T01:17:48;6.77;;;6.77;;
20844;SDS011;10583;49.084;8.646;2023-04-22T01:20:16;8.83;;;8.83;;
20844;SDS011;10583;49.084;8.646;2023-04-22T01:22:43;6.40;;;6.40;;
20844;SDS011;10583;49.084;8.646;2023-04-22T01:25:18;7.23;;;7.23;;
20844;SDS011;10583;49.084;8.646;2023-04-22T01:27:46;7.83;;;7.83;;
20844;SDS011;10583;49.084;8.646;2023-04-22T01:30:13;8.87;;;8.87;;
20844;SDS011;10583;49.084;8.646;2023-04-22T01:32:40;9.30;;;9.30;;
20844;SDS011;10583;49.084;8.646;2023-04-22T01:35:07;8.47;;;8.47;;
20844;SDS011;10583;49.084;8.646;2023-04-22T01:37:34;10.27;;;10.27;;
20844;SDS011;10583;49.084;8.646;2023-04-22T01:40:00;8.77;;;8.77;;
20844;SDS011;10583;49.084;8.646;2023-04-22T01:42:29;7.93;;;7.93;;
20844;SDS011;10583;49.084;8.646;2023-04-22T01:44:57;7.50;;;7.50;;
20844;SDS011;10583;49.084;8.646;2023-04-22T01:47:23;7.80;;;7.80;;
20844;SDS011;10583;49.084;8.646;2023-04-22T01:49:51;8.17;;;8.17;;
20844;SDS011;10583;49.084;8.646;2023-04-22T01:52:18;6.87;;;6.87;;
20844;SDS011;10583;49.084;8.646;2023-04-22T01:54:44;6.97;;;6.97;;
20844;SDS011;10583;49.084;8.646;2023-04-22T01:57:12;6.27;;;6.27;;
20844;SDS011;10583;49.084;8.646;2023-04-22T01:59:41;8.67;;;8.67;;
20844;SDS011;10583;49.084;8.646;2023-04-22T02:02:08;6.77;;;6.77;;
20844;SDS011;10583;49.084;8.646;2023-04-22T02:04:35;8.13;;;8.13;;
20844;SDS011;10583;49.084;8.646;2023-04-22T02:07:01;9.07;;;9.07;;
20844;SDS011;10583;49.084;8.646;2023-04-22T02:09:28;8.77;;;8.77;;
20844;SDS011;10583;49.084;8.646;2023-04-22T02:11:55;7.90;;;7.90;;
20844;SDS011;10583;49.084;8.646;2023-04-22T02:16:53;6.10;;;6.10;;
20844;SDS011;10583;49.084;8.646;2023-04-22T02:19:20;6.53;;;6.53;;
20844;SDS011;10583;49.084;8.646;2023-04-22T02:21:47;6.20;;;6.20;;
20844;SDS011;10583;49.084;8.646;2023-04-22T02:24:14;6.30;;;6.30;;
20844;SDS011;10583;49.084;8.646;2023-04-22T02:26:40;5.20;;;5.20;;
20844;SDS011;10583;49.084;8.646;2023-04-22T02:29:07;5.47;;;5.47;;
20844;SDS011;10583;49.084;8.646;2023-04-22T02:31:34;5.70;;;5.70;;
20844;SDS011;10583;49.084;8.646;2023-04-22T02:34:02;6.97;;;6.97;;
20844;SDS011;10583;49.084;8.646;2023-04-22T02:36:28;7.87;;;7.87;;
20844;SDS011;10583;49.084;8.646;2023-04-22T02:38:56;8.93;;;8.93;;
20844;SDS011;10583;49.084;8.646;2023-04-22T02:41:23;7.20;;;7.20;;
20844;SDS011;10583;49.084;8.646;2023-04-22T02:43:50;7.07;;;7.07;;
20844;SDS011;10583;49.084;8.646;2023-04-22T02:46:16;6.47;;;6.47;;
20844;SDS011;10583;49.084;8.646;2023-04-22T02:48:43;8.27;;;8.27;;
20844;SDS011;10583;49.084;8.646;2023-04-22T02:51:11;7.13;;;7.13;;
20844;SDS011;10583;49.084;8.646;2023-04-22T02:53:38;7.03;;;7.03;;
20844;SDS011;10583;49.084;8.646;2023-04-22T02:56:05;7.33;;;7.33;;
20844;SDS011;10583;49.084;8.646;2023-04-22T02:58:32;7.97;;;7.97;;
20844;SDS011;10583;49.084;8.646;2023-04-22T03:00:59;9.60;;;9.60;;
20844;SDS011;10583;49.084;8.646;2023-04-22T03:03:26;10.90;;;10.90;;
20844;SDS011;10583;49.084;8.646;2023-04-22T03:05:52;11.73;;;11.73;;
20844;SDS011;10583;49.084;8.646;2023-04-22T03:08:20;10.53;;;10.53;;
20844;SDS011;10583;49.084;8.646;2023-04-22T03:10:47;12.13;;;12.13;;
20844;SDS011;10583;49.084;8.646;2023-04-22T03:13:14;9.40;;;9.40;;
20844;SDS011;10583;49.084;8.646;2023-04-22T03:15:41;10.17;;;10.17;;
20844;SDS011;10583;49.084;8.646;2023-04-22T03:18:07;8.83;;;8.83;;
20844;SDS011;10583;49.084;8.646;2023-04-22T03:20:34;8.30;;;8.30;;
20844;SDS011;10583;49.084;8.646;2023-04-22T03:23:01;8.67;;;8.67;;
20844;SDS011;10583;49.084;8.646;2023-04-22T03:25:29;8.07;;;8.07;;
20844;SDS011;10583;49.084;8.646;2023-04-22T03:27:56;7.93;;;7.93;;
20844;SDS011;10583;49.084;8.646;2023-04-22T03:30:22;7.20;;;7.20;;
20844;SDS011;10583;49.084;8.646;2023-04-22T03:32:49;8.73;;;8.73;;
20844;SDS011;10583;49.084;8.646;2023-04-22T03:35:17;8.67;;;8.67;;
20844;SDS011;10583;49.084;8.646;2023-04-22T03:37:44;7.97;;;7.97;;
20844;SDS011;10583;49.084;8.646;2023-04-22T03:40:11;8.10;;;8.10;;
20844;SDS011;10583;49.084;8.646;2023-04-22T03:42:39;5.93;;;5.93;;
20844;SDS011;10583;49.084;8.646;2023-04-22T03:45:06;5.80;;;5.80;;
20844;SDS011;10583;49.084;8.646;2023-04-22T03:47:33;5.17;;;5.17;;
20844;SDS011;10583;49.084;8.646;2023-04-22T03:49:59;5.20;;;5.20;;
20844;SDS011;10583;49.084;8.646;2023-04-22T03:52:26;5.67;;;5.67;;
20844;SDS011;10583;49.084;8.646;2023-04-22T03:54:53;7.37;;;7.37;;
20844;SDS011;10583;49.084;8.646;2023-04-22T03:57:19;7.23;;;7.23;;
20844;SDS011;10583;49.084;8.646;2023-04-22T03:59:47;7.73;;;7.73;;
20844;SDS011;10583;49.084;8.646;2023-04-22T04:02:14;8.43;;;8.43;;
20844;SDS011;10583;49.084;8.646;2023-04-22T04:04:41;8.50;;;8.50;;
20844;SDS011;10583;49.084;8.646;2023-04-22T04:07:08;10.17;;;10.17;;
20844;SDS011;10583;49.084;8.646;2023-04-22T04:09:36;8.53;;;8.53;;
20844;SDS011;10583;49.084;8.646;2023-04-22T04:12:02;10.13;;;10.13;;
20844;SDS011;10583;49.084;8.646;2023-04-22T04:14:29;9.90;;;9.90;;
20844;SDS011;10583;49.084;8.646;2023-04-22T04:16:57;8.50;;;8.50;;
20844;SDS011;10583;49.084;8.646;2023-04-22T04:19:24;8.30;;;8.30;;
20844;SDS011;10583;49.084;8.646;2023-04-22T04:21:51;7.97;;;7.97;;
20844;SDS011;10583;49.084;8.646;2023-04-22T04:24:18;8.27;;;8.27;;
20844;SDS011;10583;49.084;8.646;2023-04-22T04:26:44;7.40;;;7.40;;
20844;SDS011;10583;49.084;8.646;2023-04-22T04:29:12;6.60;;;6.60;;
20844;SDS011;10583;49.084;8.646;2023-04-22T04:31:39;6.87;;;6.87;;
20844;SDS011;10583;49.084;8.646;2023-04-22T04:34:07;7.80;;;7.80;;
20844;SDS011;10583;49.084;8.646;2023-04-22T04:36:34;7.63;;;7.63;;
20844;SDS011;10583;49.084;8.646;2023-04-22T04:39:03;7.70;;;7.70;;
20844;SDS011;10583;49.084;8.646;2023-04-22T04:41:30;8.80;;;8.80;;
20844;SDS011;10583;49.084;8.646;2023-04-22T04:43:57;7.27;;;7.27;;
20844;SDS011;10583;49.084;8.646;2023-04-22T04:46:24;7.70;;;7.70;;
20844;SDS011;10583;49.084;8.646;2023-04-22T04:48:53;6.80;;;6.80;;
20844;SDS011;10583;49.084;8.646;2023-04-22T04:51:21;6.20;;;6.20;;
20844;SDS011;10583;49.084;8.646;2023-04-22T04:53:48;5.70;;;5.70;;
20844;SDS011;10583;49.084;8.646;2023-04-22T04:56:15;6.93;;;6.93;;
20844;SDS011;10583;49.084;8.646;2023-04-22T04:58:42;5.30;;;5.30;;
20844;SDS011;10583;49.084;8.646;2023-04-22T05:01:09;5.53;;;5.53;;
20844;SDS011;10583;49.084;8.646;2023-04-22T05:03:35;5.27;;;5.27;;
20844;SDS011;10583;49.084;8.646;2023-04-22T05:06:02;5.20;;;5.20;;
20844;SDS011;10583;49.084;8.646;2023-04-22T05:08:31;4.87;;;4.87;;
20844;SDS011;10583;49.084;8.646;2023-04-22T05:10:58;6.53;;;6.53;;
20844;SDS011;10583;49.084;8.646;2023-04-22T05:13:24;5.10;;;5.10;;
20844;SDS011;10583;49.084;8.646;2023-04-22T05:15:51;5.20;;;5.20;;
20844;SDS011;10583;49.084;8.646;2023-04-22T05:18:18;5.00;;;5.00;;
20844;SDS011;10583;49.084;8.646;2023-04-22T05:20:45;5.03;;;5.03;;
20844;SDS011;10583;49.084;8.646;2023-04-22T05:23:12;5.13;;;5.13;;
20844;SDS011;10583;49.084;8.646;2023-04-22T05:25:47;4.93;;;4.93;;
20844;SDS011;10583;49.084;8.646;2023-04-22T05:28:14;4.47;;;4.47;;
20844;SDS011;10583;49.084;8.646;2023-04-22T05:30:40;5.10;;;5.10;;
20844;SDS011;10583;49.084;8.646;2023-04-22T05:33:07;4.90;;;4.90;;
20844;SDS011;10583;49.084;8.646;2023-04-22T05:35:34;5.07;;;5.07;;
20844;SDS011;10583;49.084;8.646;2023-04-22T05:38:00;4.70;;;4.70;;
20844;SDS011;10583;49.084;8.646;2023-04-22T05:40:27;5.17;;;5.17;;
20844;SDS011;10583;49.084;8.646;2023-04-22T05:42:56;5.30;;;5.30;;
20844;SDS011;10583;49.084;8.646;2023-04-22T05:45:22;4.67;;;4.67;;
20844;SDS011;10583;49.084;8.646;2023-04-22T05:47:49;3.87;;;3.87;;
20844;SDS011;10583;49.084;8.646;2023-04-22T05:50:16;4.97;;;4.97;;
20844;SDS011;10583;49.084;8.646;2023-04-22T05:52:42;5.57;;;5.57;;
20844;SDS011;10583;49.084;8.646;2023-04-22T05:55:09;5.17;;;5.17;;
20844;SDS011;10583;49.084;8.646;2023-04-22T05:57:36;5.70;;;5.70;;
20844;SDS011;10583;49.084;8.646;2023-04-22T06:00:04;5.77;;;5.77;;
20844;SDS011;10583;49.084;8.646;2023-04-22T06:02:32;5.27;;;5.27;;
20844;SDS011;10583;49.084;8.646;2023-04-22T06:04:58;6.27;;;6.27;;
20844;SDS011;10583;49.084;8.646;2023-04-22T06:07:25;5.27;;;5.27;;
20844;SDS011;10583;49.084;8.646;2023-04-22T06:09:52;5.47;;;5.47;;
20844;SDS011;10583;49.084;8.646;2023-04-22T06:12:18;5.50;;;5.50;;
20844;SDS011;10583;49.084;8.646;2023-04-22T06:14:45;5.27;;;5.27;;
20844;SDS011;10583;49.084;8.646;2023-04-22T06:17:13;5.20;;;5.20;;
20844;SDS011;10583;49.084;8.646;2023-04-22T06:19:40;5.50;;;5.50;;
20844;SDS011;10583;49.084;8.646;2023-04-22T06:22:06;4.80;;;4.80;;
20844;SDS011;10583;49.084;8.646;2023-04-22T06:24:33;4.83;;;4.83;;
20844;SDS011;10583;49.084;8.646;2023-04-22T06:27:00;5.40;;;5.40;;
20844;SDS011;10583;49.084;8.646;2023-04-22T06:29:27;6.00;;;6.00;;
20844;SDS011;10583;49.084;8.646;2023-04-22T06:31:54;5.17;;;5.17;;
20844;SDS011;10583;49.084;8.646;2023-04-22T06:34:24;5.40;;;5.40;;
20844;SDS011;10583;49.084;8.646;2023-04-22T06:36:51;6.23;;;6.23;;
20844;SDS011;10583;49.084;8.646;2023-04-22T06:39:18;5.63;;;5.63;;
20844;SDS011;10583;49.084;8.646;2023-04-22T06:41:45;6.97;;;6.97;;
20844;SDS011;10583;49.084;8.646;2023-04-22T06:44:13;6.70;;;6.70;;
20844;SDS011;10583;49.084;8.646;2023-04-22T06:46:39;7.00;;;7.00;;
20844;SDS011;10583;49.084;8.646;2023-04-22T06:49:06;7.60;;;7.60;;
20844;SDS011;10583;49.084;8.646;2023-04-22T06:51:34;7.33;;;7.33;;
20844;SDS011;10583;49.084;8.646;2023-04-22T06:54:01;7.50;;;7.50;;
20844;SDS011;10583;49.084;8.646;2023-04-22T06:56:28;6.30;;;6.30;;
20844;SDS011;10583;49.084;8.646;2023-04-22T06:58:55;7.27;;;7.27;;
20844;SDS011;10583;49.084;8.646;2023-04-22T07:01:21;7.07;;;7.07;;
20844;SDS011;10583;49.084;8.646;2023-04-22T07:03:48;6.70;;;6.70;;
20844;SDS011;10583;49.084;8.646;2023-04-22T07:06:14;6.00;;;6.00;;
20844;SDS011;10583;49.084;8.646;2023-04-22T07:08:43;6.87;;;6.87;;
20844;SDS011;10583;49.084;8.646;2023-04-22T07:11:09;6.50;;;6.50;;
20844;SDS011;10583;49.084;8.646;2023-04-22T07:16:08;5.67;;;5.67;;
20844;SDS011;10583;49.084;8.646;2023-04-22T07:18:34;5.87;;;5.87;;
20844;SDS011;10583;49.084;8.646;2023-04-22T07:21:01;5.83;;;5.83;;
20844;SDS011;10583;49.084;8.646;2023-04-22T07:23:32;6.10;;;6.10;;
20844;SDS011;10583;49.084;8.646;2023-04-22T07:26:00;5.73;;;5.73;;
20844;SDS011;10583;49.084;8.646;2023-04-22T07:28:27;5.93;;;5.93;;
20844;SDS011;10583;49.084;8.646;2023-04-22T07:30:53;5.63;;;5.63;;
20844;SDS011;10583;49.084;8.646;2023-04-22T07:33:20;5.40;;;5.40;;
20844;SDS011;10583;49.084;8.646;2023-04-22T07:35:47;5.40;;;5.40;;
20844;SDS011;10583;49.084;8.646;2023-04-22T07:38:13;5.00;;;5.00;;
20844;SDS011;10583;49.084;8.646;2023-04-22T07:40:40;5.57;;;5.57;;
20844;SDS011;10583;49.084;8.646;2023-04-22T07:43:09;5.50;;;5.50;;
20844;SDS011;10583;49.084;8.646;2023-04-22T07:45:35;5.50;;;5.50;;
20844;SDS011;10583;49.084;8.646;2023-04-22T07:48:03;5.33;;;5.33;;
20844;SDS011;10583;49.084;8.646;2023-04-22T07:50:29;4.90;;;4.90;;
20844;SDS011;10583;49.084;8.646;2023-04-22T07:52:56;9.43;;;9.43;;
20844;SDS011;10583;49.084;8.646;2023-04-22T07:55:23;5.13;;;5.13;;
20844;SDS011;10583;49.084;8.646;2023-04-22T07:57:50;5.03;;;5.03;;
20844;SDS011;10583;49.084;8.646;2023-04-22T08:00:18;5.03;;;5.03;;
20844;SDS011;10583;49.084;8.646;2023-04-22T08:02:44;4.27;;;4.27;;
20844;SDS011;10583;49.084;8.646;2023-04-22T08:05:11;4.20;;;4.20;;
20844;SDS011;10583;49.084;8.646;2023-04-22T08:07:38;4.00;;;4.00;;
20844;SDS011;10583;49.084;8.646;2023-04-22T08:10:05;3.70;;;3.70;;
20844;SDS011;10583;49.084;8.646;2023-04-22T08:12:32;4.03;;;4.03;;
20844;SDS011;10583;49.084;8.646;2023-04-22T08:14:59;3.27;;;3.27;;
20844;SDS011;10583;49.084;8.646;2023-04-22T08:17:27;3.60;;;3.60;;
20844;SDS011;10583;49.084;8.646;2023-04-22T08:19:54;2.47;;;2.47;;
20844;SDS011;10583;49.084;8.646;2023-04-22T08:22:21;3.10;;;3.10;;
20844;SDS011;10583;49.084;8.646;2023-04-22T08:24:49;3.33;;;3.33;;
20844;SDS011;10583;49.084;8.646;2023-04-22T08:27:16;3.27;;;3.27;;
20844;SDS011;10583;49.084;8.646;2023-04-22T08:29:43;3.13;;;3.13;;
20844;SDS011;10583;49.084;8.646;2023-04-22T08:32:10;2.83;;;2.83;;
20844;SDS011;10583;49.084;8.646;2023-04-22T08:34:38;3.00;;;3.00;;
20844;SDS011;10583;49.084;8.646;2023-04-22T08:37:05;2.80;;;2.80;;
20844;SDS011;10583;49.084;8.646;2023-04-22T08:39:32;3.07;;;3.07;;
20844;SDS011;10583;49.084;8.646;2023-04-22T08:42:00;2.60;;;2.60;;
20844;SDS011;10583;49.084;8.646;2023-04-22T08:44:28;2.70;;;2.70;;
20844;SDS011;10583;49.084;8.646;2023-04-22T08:46:55;2.80;;;2.80;;
20844;SDS011;10583;49.084;8.646;2023-04-22T08:49:24;2.72;;;2.72;;
20844;SDS011;10583;49.084;8.646;2023-04-22T08:51:53;2.65;;;2.65;;
20844;SDS011;10583;49.084;8.646;2023-04-22T08:54:21;2.63;;;2.63;;
20844;SDS011;10583;49.084;8.646;2023-04-22T08:56:49;2.63;;;2.63;;
20844;SDS011;10583;49.084;8.646;2023-04-22T08:59:16;2.53;;;2.53;;
20844;SDS011;10583;49.084;8.646;2023-04-22T09:01:43;1.80;;;1.80;;
20844;SDS011;10583;49.084;8.646;2023-04-22T09:04:13;2.55;;;2.55;;
20844;SDS011;10583;49.084;8.646;2023-04-22T09:06:42;2.17;;;2.17;;
20844;SDS011;10583;49.084;8.646;2023-04-22T09:09:10;2.65;;;2.65;;
20844;SDS011;10583;49.084;8.646;2023-04-22T09:11:38;2.42;;;2.42;;
20844;SDS011;10583;49.084;8.646;2023-04-22T09:14:04;2.15;;;2.15;;
20844;SDS011;10583;49.084;8.646;2023-04-22T09:16:31;2.03;;;2.03;;
20844;SDS011;10583;49.084;8.646;2023-04-22T09:18:58;2.10;;;2.10;;
20844;SDS011;10583;49.084;8.646;2023-04-22T09:21:25;2.28;;;2.28;;
20844;SDS011;10583;49.084;8.646;2023-04-22T09:23:53;2.50;;;2.50;;
20844;SDS011;10583;49.084;8.646;2023-04-22T09:26:23;2.17;;;2.17;;
20844;SDS011;10583;49.084;8.646;2023-04-22T09:28:51;2.10;;;2.10;;
20844;SDS011;10583;49.084;8.646;2023-04-22T09:31:20;2.00;;;2.00;;
20844;SDS011;10583;49.084;8.646;2023-04-22T09:33:48;1.90;;;1.90;;
20844;SDS011;10583;49.084;8.646;2023-04-22T09:36:15;1.92;;;1.92;;
20844;SDS011;10583;49.084;8.646;2023-04-22T09:38:51;2.30;;;2.30;;
20844;SDS011;10583;49.084;8.646;2023-04-22T09:41:26;2.00;;;2.00;;
20844;SDS011;10583;49.084;8.646;2023-04-22T09:43:53;2.30;;;2.30;;
20844;SDS011;10583;49.084;8.646;2023-04-22T09:46:21;2.05;;;2.05;;
20844;SDS011;10583;49.084;8.646;2023-04-22T09:48:49;2.38;;;2.38;;
20844;SDS011;10583;49.084;8.646;2023-04-22T09:51:17;2.13;;;2.13;;
20844;SDS011;10583;49.084;8.646;2023-04-22T09:53:44;2.25;;;2.25;;
20844;SDS011;10583;49.084;8.646;2023-04-22T09:56:23;2.58;;;2.58;;
20844;SDS011;10583;49.084;8.646;2023-04-22T09:59:06;2.67;;;2.67;;
20844;SDS011;10583;49.084;8.646;2023-04-22T10:01:34;3.85;;;3.85;;
20844;SDS011;10583;49.084;8.646;2023-04-22T10:04:01;2.30;;;2.30;;
20844;SDS011;10583;49.084;8.646;2023-04-22T10:06:28;1.80;;;1.80;;
20844;SDS011;10583;49.084;8.646;2023-04-22T10:08:56;1.90;;;1.90;;
20844;SDS011;10583;49.084;8.646;2023-04-22T10:11:23;1.80;;;1.80;;
20844;SDS011;10583;49.084;8.646;2023-04-22T10:13:51;1.80;;;1.80;;
20844;SDS011;10583;49.084;8.646;2023-04-22T10:16:18;1.70;;;1.70;;
20844;SDS011;10583;49.084;8.646;2023-04-22T10:18:47;1.77;;;1.77;;
20844;SDS011;10583;49.084;8.646;2023-04-22T10:21:15;1.80;;;1.80;;
20844;SDS011;10583;49.084;8.646;2023-04-22T10:23:46;1.63;;;1.63;;
20844;SDS011;10583;49.084;8.646;2023-04-22T10:26:22;2.20;;;2.20;;
20844;SDS011;10583;49.084;8.646;2023-04-22T10:29:05;1.58;;;1.58;;
20844;SDS011;10583;49.084;8.646;2023-04-22T10:31:33;2.00;;;2.00;;
20844;SDS011;10583;49.084;8.646;2023-04-22T10:34:08;2.08;;;2.08;;
20844;SDS011;10583;49.084;8.646;2023-04-22T10:39:23;1.60;;;1.60;;
20844;SDS011;10583;49.084;8.646;2023-04-22T10:41:51;1.60;;;1.60;;
20844;SDS011;10583;49.084;8.646;2023-04-22T10:44:26;1.90;;;1.90;;
20844;SDS011;10583;49.084;8.646;2023-04-22T10:46:54;1.80;;;1.80;;
20844;SDS011;10583;49.084;8.646;2023-04-22T10:49:22;1.90;;;1.90;;
20844;SDS011;10583;49.084;8.646;2023-04-22T10:51:51;1.80;;;1.80;;
20844;SDS011;10583;49.084;8.646;2023-04-22T10:57:27;1.63;;;1.63;;
20844;SDS011;10583;49.084;8.646;2023-04-22T11:00:16;1.50;;;1.50;;
20844;SDS011;10583;49.084;8.646;2023-04-22T11:02:56;1.88;;;1.88;;
20844;SDS011;10583;49.084;8.646;2023-04-22T11:05:41;1.73;;;1.73;;
20844;SDS011;10583;49.084;8.646;2023-04-22T11:08:13;1.90;;;1.90;;
20844;SDS011;10583;49.084;8.646;2023-04-22T11:10:45;1.85;;;1.85;;
20844;SDS011;10583;49.084;8.646;2023-04-22T11:13:13;1.50;;;1.50;;
20844;SDS011;10583;49.084;8.646;2023-04-22T11:15:43;1.50;;;1.50;;
20844;SDS011;10583;49.084;8.646;2023-04-22T11:18:18;1.50;;;1.50;;
20844;SDS011;10583;49.084;8.646;2023-04-22T11:20:45;1.30;;;1.30;;
20844;SDS011;10583;49.084;8.646;2023-04-22T11:23:17;1.40;;;1.40;;
20844;SDS011;10583;49.084;8.646;2023-04-22T11:25:45;1.70;;;1.70;;
20844;SDS011;10583;49.084;8.646;2023-04-22T11:28:12;1.40;;;1.40;;
20844;SDS011;10583;49.084;8.646;2023-04-22T11:30:39;1.50;;;1.50;;
20844;SDS011;10583;49.084;8.646;2023-04-22T11:33:07;1.50;;;1.50;;
20844;SDS011;10583;49.084;8.646;2023-04-22T11:35:34;1.40;;;1.40;;
20844;SDS011;10583;49.084;8.646;2023-04-22T11:38:02;1.58;;;1.58;;
20844;SDS011;10583;49.084;8.646;2023-04-22T11:40:33;1.67;;;1.67;;
20844;SDS011;10583;49.084;8.646;2023-04-22T11:43:01;1.70;;;1.70;;
20844;SDS011;10583;49.084;8.646;2023-04-22T11:45:30;1.52;;;1.52;;
20844;SDS011;10583;49.084;8.646;2023-04-22T11:47:57;1.50;;;1.50;;
20844;SDS011;10583;49.084;8.646;2023-04-22T11:50:26;1.30;;;1.30;;
20844;SDS011;10583;49.084;8.646;2023-04-22T11:52:55;1.58;;;1.58;;
20844;SDS011;10583;49.084;8.646;2023-04-22T11:55:24;1.40;;;1.40;;
20844;SDS011;10583;49.084;8.646;2023-04-22T11:57:54;1.30;;;1.30;;
20844;SDS011;10583;49.084;8.646;2023-04-22T12:00:23;1.60;;;1.60;;
20844;SDS011;10583;49.084;8.646;2023-04-22T12:02:53;1.35;;;1.35;;
20844;SDS011;10583;49.084;8.646;2023-04-22T12:05:32;1.42;;;1.42;;
20844;SDS011;10583;49.084;8.646;2023-04-22T12:08:01;1.23;;;1.23;;
20844;SDS011;10583;49.084;8.646;2023-04-22T12:10:28;1.42;;;1.42;;
20844;SDS011;10583;49.084;8.646;2023-04-22T12:12:55;1.67;;;1.67;;
20844;SDS011;10583;49.084;8.646;2023-04-22T12:15:22;1.30;;;1.30;;
20844;SDS011;10583;49.084;8.646;2023-04-22T12:17:49;1.50;;;1.50;;
20844;SDS011;10583;49.084;8.646;2023-04-22T12:20:16;1.15;;;1.15;;
20844;SDS011;10583;49.084;8.646;2023-04-22T12:22:44;1.90;;;1.90;;
20844;SDS011;10583;49.084;8.646;2023-04-22T12:25:11;1.60;;;1.60;;
20844;SDS011;10583;49.084;8.646;2023-04-22T12:27:43;1.55;;;1.55;;
20844;SDS011;10583;49.084;8.646;2023-04-22T12:30:10;1.50;;;1.50;;
20844;SDS011;10583;49.084;8.646;2023-04-22T12:32:38;1.40;;;1.40;;
20844;SDS011;10583;49.084;8.646;2023-04-22T12:35:05;1.63;;;1.63;;
20844;SDS011;10583;49.084;8.646;2023-04-22T12:37:33;1.60;;;1.60;;
20844;SDS011;10583;49.084;8.646;2023-04-22T12:40:01;1.70;;;1.70;;
20844;SDS011;10583;49.084;8.646;2023-04-22T12:42:30;1.48;;;1.48;;
20844;SDS011;10583;49.084;8.646;2023-04-22T12:44:57;1.50;;;1.50;;
20844;SDS011;10583;49.084;8.646;2023-04-22T12:47:23;1.60;;;1.60;;
20844;SDS011;10583;49.084;8.646;2023-04-22T12:49:50;1.50;;;1.50;;
20844;SDS011;10583;49.084;8.646;2023-04-22T12:52:17;1.80;;;1.80;;
20844;SDS011;10583;49.084;8.646;2023-04-22T12:54:43;1.67;;;1.67;;
20844;SDS011;10583;49.084;8.646;2023-04-22T12:57:11;1.48;;;1.48;;
20844;SDS011;10583;49.084;8.646;2023-04-22T12:59:38;1.40;;;1.40;;
20844;SDS011;10583;49.084;8.646;2023-04-22T13:02:06;1.70;;;1.70;;
20844;SDS011;10583;49.084;8.646;2023-04-22T13:04:33;1.10;;;1.10;;
20844;SDS011;10583;49.084;8.646;2023-04-22T13:06:59;1.40;;;1.40;;
20844;SDS011;10583;49.084;8.646;2023-04-22T13:09:26;1.50;;;1.50;;
20844;SDS011;10583;49.084;8.646;2023-04-22T13:11:53;1.48;;;1.48;;
20844;SDS011;10583;49.084;8.646;2023-04-22T13:14:21;1.45;;;1.45;;
20844;SDS011;10583;49.084;8.646;2023-04-22T13:16:47;1.50;;;1.50;;
20844;SDS011;10583;49.084;8.646;2023-04-22T13:19:14;1.30;;;1.30;;
20844;SDS011;10583;49.084;8.646;2023-04-22T13:21:41;1.38;;;1.38;;
20844;SDS011;10583;49.084;8.646;2023-04-22T13:24:09;1.52;;;1.52;;
20844;SDS011;10583;49.084;8.646;2023-04-22T13:26:35;1.60;;;1.60;;
20844;SDS011;10583;49.084;8.646;2023-04-22T13:29:03;1.58;;;1.58;;
20844;SDS011;10583;49.084;8.646;2023-04-22T13:31:40;1.65;;;1.65;;
20844;SDS011;10583;49.084;8.646;2023-04-22T13:34:07;1.25;;;1.25;;
20844;SDS011;10583;49.084;8.646;2023-04-22T13:36:35;1.23;;;1.23;;
20844;SDS011;10583;49.084;8.646;2023-04-22T13:39:03;1.40;;;1.40;;
20844;SDS011;10583;49.084;8.646;2023-04-22T13:41:31;1.52;;;1.52;;
20844;SDS011;10583;49.084;8.646;2023-04-22T13:43:57;1.65;;;1.65;;
20844;SDS011;10583;49.084;8.646;2023-04-22T13:46:24;1.52;;;1.52;;
20844;SDS011;10583;49.084;8.646;2023-04-22T13:48:53;1.40;;;1.40;;
20844;SDS011;10583;49.084;8.646;2023-04-22T13:51:20;1.65;;;1.65;;
20844;SDS011;10583;49.084;8.646;2023-04-22T13:53:47;1.35;;;1.35;;
20844;SDS011;10583;49.084;8.646;2023-04-22T13:56:14;1.50;;;1.50;;
20844;SDS011;10583;49.084;8.646;2023-04-22T13:58:41;1.80;;;1.80;;
20844;SDS011;10583;49.084;8.646;2023-04-22T14:01:08;1.55;;;1.55;;
20844;SDS011;10583;49.084;8.646;2023-04-22T14:03:34;1.73;;;1.73;;
20844;SDS011;10583;49.084;8.646;2023-04-22T14:06:02;1.85;;;1.85;;
20844;SDS011;10583;49.084;8.646;2023-04-22T14:08:29;1.50;;;1.50;;
20844;SDS011;10583;49.084;8.646;2023-04-22T14:10:56;1.48;;;1.48;;
20844;SDS011;10583;49.084;8.646;2023-04-22T14:13:24;1.50;;;1.50;;
20844;SDS011;10583;49.084;8.646;2023-04-22T14:15:51;1.40;;;1.40;;
20844;SDS011;10583;49.084;8.646;2023-04-22T14:18:17;1.63;;;1.63;;
20844;SDS011;10583;49.084;8.646;2023-04-22T14:20:46;1.65;;;1.65;;
20844;SDS011;10583;49.084;8.646;2023-04-22T14:25:44;2.60;;;2.60;;
20844;SDS011;10583;49.084;8.646;2023-04-22T14:28:11;1.70;;;1.70;;
20844;SDS011;10583;49.084;8.646;2023-04-22T14:30:38;1.85;;;1.85;;
20844;SDS011;10583;49.084;8.646;2023-04-22T14:33:05;1.10;;;1.10;;
20844;SDS011;10583;49.084;8.646;2023-04-22T14:35:32;1.40;;;1.40;;
20844;SDS011;10583;49.084;8.646;2023-04-22T14:37:59;1.48;;;1.48;;
20844;SDS011;10583;49.084;8.646;2023-04-22T14:40:28;1.35;;;1.35;;
20844;SDS011;10583;49.084;8.646;2023-04-22T14:42:54;1.48;;;1.48;;
20844;SDS011;10583;49.084;8.646;2023-04-22T14:45:24;2.10;;;2.10;;
20844;SDS011;10583;49.084;8.646;2023-04-22T14:47:53;1.45;;;1.45;;
20844;SDS011;10583;49.084;8.646;2023-04-22T14:50:20;1.40;;;1.40;;
20844;SDS011;10583;49.084;8.646;2023-04-22T14:52:46;1.60;;;1.60;;
20844;SDS011;10583;49.084;8.646;2023-04-22T14:55:13;1.55;;;1.55;;
20844;SDS011;10583;49.084;8.646;2023-04-22T14:57:41;1.80;;;1.80;;
20844;SDS011;10583;49.084;8.646;2023-04-22T15:00:09;1.70;;;1.70;;
20844;SDS011;10583;49.084;8.646;2023-04-22T15:02:36;1.40;;;1.40;;